createdAt,value
2023-07-15T07:23:19.360Z,61.75
2023-07-15T07:26:31.956Z,60.45
2023-07-15T07:29:44.093Z,58.83
2023-07-15T07:32:56.247Z,58.35
2023-07-15T07:36:08.783Z,57.93
2023-07-15T07:39:20.854Z,56.81
2023-07-15T07:42:33.052Z,56.34
2023-07-15T07:45:45.074Z,56.81
2023-07-15T07:48:57.221Z,56.23
2023-07-15T07:52:10.261Z,55.38
2023-07-15T07:55:22.505Z,55.10
2023-07-15T07:58:34.582Z,54.33
2023-07-15T08:01:46.897Z,53.49
2023-07-15T08:04:59.397Z,52.99
2023-07-15T08:08:12.034Z,53.67
2023-07-15T08:11:24.270Z,52.39
2023-07-15T08:14:36.439Z,51.56
2023-07-15T08:17:48.631Z,51.15
2023-07-15T08:21:00.909Z,51.29
2023-07-15T08:24:13.726Z,50.55
2023-07-15T08:27:26.099Z,49.64
2023-07-15T08:30:38.710Z,50.31
2023-07-15T08:33:50.897Z,49.19
2023-07-15T08:37:02.970Z,47.95
2023-07-15T08:40:17.656Z,47.71
2023-07-15T08:43:29.890Z,47.41
2023-07-15T08:46:42.545Z,45.68
2023-07-15T08:49:57.863Z,47.50
2023-07-15T08:53:11.210Z,45.62
2023-07-15T08:56:25.415Z,45.57
2023-07-15T08:59:38.272Z,45.22
2023-07-15T09:02:50.609Z,49.36
2023-07-15T09:06:02.772Z,45.05
2023-07-15T09:09:15.293Z,47.53
2023-07-15T09:12:29.488Z,44.85
2023-07-15T09:15:44.087Z,45.88
2023-07-15T09:18:57.761Z,47.23
2023-07-15T09:22:15.189Z,44.38
2023-07-15T09:25:28.989Z,43.21
2023-07-15T09:28:42.475Z,46.54
2023-07-15T09:31:55.765Z,46.50
2023-07-15T09:35:09.004Z,42.66
2023-07-15T09:38:24.146Z,44.26
2023-07-15T09:41:37.218Z,42.92
2023-07-15T09:44:51.178Z,40.98
2023-07-15T09:48:03.478Z,42.07
2023-07-15T09:51:18.895Z,42.20
2023-07-15T09:54:31.386Z,37.77
2023-07-15T09:57:44.210Z,40.18
2023-07-15T10:01:01.562Z,39.87
2023-07-15T10:04:22.355Z,39.09
2023-07-15T10:07:35.037Z,40.26
2023-07-15T10:10:48.022Z,40.72
2023-07-15T10:14:00.926Z,40.36
2023-07-15T10:17:20.999Z,38.88
2023-07-15T10:20:38.169Z,43.18
2023-07-15T10:23:52.402Z,40.00
2023-07-15T10:27:08.040Z,39.03
2023-07-15T10:30:31.199Z,40.31
2023-07-15T10:33:52.143Z,40.59
2023-07-15T10:37:12.974Z,39.70
2023-07-15T10:40:54.784Z,39.28
2023-07-15T10:44:20.250Z,41.81
2023-07-15T10:47:34.963Z,38.99
2023-07-15T10:50:47.709Z,44.71
2023-07-15T10:53:59.785Z,41.96
2023-07-15T10:57:19.041Z,37.81
2023-07-15T11:00:32.059Z,39.22
2023-07-15T11:03:47.059Z,40.09
2023-07-15T11:07:01.884Z,38.90
2023-07-15T11:10:16.047Z,39.68
2023-07-15T11:13:28.233Z,39.40
2023-07-15T11:16:44.070Z,40.44
2023-07-15T11:19:57.036Z,40.02
2023-07-15T11:23:09.694Z,40.51
2023-07-15T11:26:22.165Z,38.98
2023-07-15T11:29:35.498Z,39.30
2023-07-15T11:32:47.900Z,38.73
2023-07-15T11:36:00.628Z,38.86
2023-07-15T11:42:14.842Z,38.44
2023-07-15T11:45:32.333Z,41.98
2023-07-15T11:48:45.596Z,38.50
2023-07-15T11:52:01.676Z,39.03
2023-07-15T11:55:14.888Z,40.45
2023-07-15T11:58:54.497Z,46.06
2023-07-15T12:02:10.679Z,43.55
2023-07-15T12:05:21.334Z,41.04
2023-07-15T12:08:33.640Z,39.51
2023-07-15T12:11:46.210Z,45.14
2023-07-15T12:14:58.477Z,41.70
2023-07-15T12:18:11.084Z,39.09
2023-07-15T12:21:23.530Z,43.24
2023-07-15T12:24:35.720Z,43.20
2023-07-15T12:27:47.738Z,40.30
2023-07-15T12:30:59.955Z,39.85
2023-07-15T12:34:12.315Z,39.68
2023-07-15T12:37:24.567Z,40.64
2023-07-15T12:40:36.792Z,39.66
2023-07-15T12:43:49.787Z,38.57
2023-07-15T12:47:01.958Z,37.37
2023-07-15T12:50:15.852Z,37.36
2023-07-15T12:53:30.081Z,37.91
2023-07-15T12:56:42.251Z,38.98
2023-07-15T12:59:54.348Z,39.11
2023-07-15T13:03:08.192Z,37.51
2023-07-15T13:06:20.559Z,37.08
2023-07-15T13:09:32.788Z,39.08
2023-07-15T13:12:44.986Z,40.55
2023-07-15T13:15:58.154Z,40.41
2023-07-15T13:19:11.018Z,37.73
2023-07-15T13:22:23.256Z,40.69
2023-07-15T13:25:35.526Z,38.07
2023-07-15T13:28:47.862Z,37.41
2023-07-15T13:32:00.131Z,41.99
2023-07-15T13:35:13.847Z,38.92
2023-07-15T13:38:26.316Z,38.01
2023-07-15T13:41:38.760Z,37.34
2023-07-15T13:44:51.403Z,37.04
2023-07-15T13:48:03.661Z,36.34
2023-07-15T13:51:16.290Z,37.46
2023-07-15T13:54:29.251Z,38.72
2023-07-15T13:57:41.354Z,37.48
2023-07-15T14:00:53.822Z,37.97
2023-07-15T14:04:06.173Z,38.97
2023-07-15T14:07:20.099Z,42.58
2023-07-15T14:10:32.798Z,38.63
2023-07-15T14:13:45.210Z,37.58
2023-07-15T14:16:57.645Z,37.18
2023-07-15T14:20:12.220Z,39.80
2023-07-15T14:23:24.565Z,35.45
2023-07-15T14:26:36.984Z,35.98
2023-07-15T14:29:49.259Z,33.50
2023-07-15T14:33:01.454Z,33.48
2023-07-15T14:36:13.955Z,34.23
2023-07-15T14:39:26.154Z,34.66
2023-07-15T14:42:38.459Z,37.55
2023-07-15T14:45:52.097Z,38.77
2023-07-15T14:49:05.522Z,36.24
2023-07-15T14:52:17.670Z,34.94
2023-07-15T14:55:29.982Z,34.55
2023-07-15T14:58:42.342Z,35.08
2023-07-15T15:01:54.443Z,36.52
2023-07-15T15:05:06.762Z,35.31
2023-07-15T15:08:19.254Z,36.22
2023-07-15T15:11:31.450Z,36.19
2023-07-15T15:14:43.612Z,36.31
2023-07-15T15:17:55.687Z,36.31
2023-07-15T15:21:07.859Z,37.27
2023-07-15T15:24:22.439Z,39.22
2023-07-15T15:27:34.758Z,38.81
2023-07-15T15:30:47.075Z,39.69
2023-07-15T15:33:59.211Z,40.01
2023-07-15T15:37:12.300Z,39.51
2023-07-15T15:40:25.882Z,39.33
2023-07-15T15:43:38.024Z,39.63
2023-07-15T15:46:50.386Z,39.51
2023-07-15T15:50:02.696Z,41.84
2023-07-15T15:53:15.435Z,41.24
2023-07-15T15:56:27.606Z,40.46
2023-07-15T15:59:39.642Z,41.13
2023-07-15T16:02:51.816Z,40.62
2023-07-15T16:06:04.786Z,39.83
2023-07-15T16:09:16.945Z,41.22
2023-07-15T16:12:28.995Z,40.17
2023-07-15T16:15:41.272Z,40.75
2023-07-15T16:18:53.309Z,39.69
2023-07-15T16:22:06.967Z,40.49
2023-07-15T16:25:19.502Z,41.60
2023-07-15T16:28:31.813Z,40.90
2023-07-15T16:31:44.172Z,42.18
2023-07-15T16:34:57.944Z,43.23
2023-07-15T16:38:10.068Z,43.94
2023-07-15T16:41:22.110Z,45.42
2023-07-15T16:44:34.315Z,45.67
2023-07-15T16:47:46.951Z,43.34
2023-07-15T16:50:59.381Z,43.30
2023-07-15T16:54:11.655Z,43.83
2023-07-15T16:57:24.491Z,42.74
2023-07-15T17:00:36.748Z,44.18
2023-07-15T17:03:48.911Z,44.46
2023-07-15T17:07:01.294Z,44.13
2023-07-15T17:10:15.553Z,45.43
2023-07-15T17:13:29.785Z,45.53
2023-07-15T17:16:42.516Z,44.04
2023-07-15T17:19:54.646Z,43.96
2023-07-15T17:23:06.798Z,43.46
2023-07-15T17:26:18.943Z,43.08
2023-07-15T17:29:31.256Z,44.49
2023-07-15T17:32:43.432Z,44.75
2023-07-15T17:35:55.803Z,45.91
2023-07-15T17:39:08.120Z,49.06
2023-07-15T17:42:20.234Z,50.41
2023-07-15T17:45:32.501Z,50.78
2023-07-15T17:48:44.987Z,50.73
2023-07-15T17:51:57.156Z,53.92
2023-07-15T17:55:21.727Z,54.61
2023-07-15T17:58:24.852Z,56.80
2023-07-15T18:01:36.949Z,52.29
2023-07-15T18:04:54.999Z,56.19
2023-07-15T18:08:07.292Z,59.39
2023-07-15T18:11:19.564Z,58.79
2023-07-15T18:14:31.680Z,59.33
2023-07-15T18:17:43.798Z,59.39
2023-07-15T18:20:55.990Z,61.04
2023-07-15T18:24:08.140Z,61.37
2023-07-15T18:27:20.459Z,62.59
2023-07-15T18:30:34.156Z,63.30
2023-07-15T18:33:46.292Z,63.59
2023-07-15T18:36:58.708Z,64.47
2023-07-15T18:40:13.365Z,64.78
2023-07-15T18:43:25.666Z,65.71
2023-07-15T18:46:37.868Z,67.02
2023-07-15T18:49:50.529Z,69.53
2023-07-15T18:53:02.635Z,68.89
2023-07-15T18:56:15.165Z,72.37
2023-07-15T18:59:27.390Z,72.81
2023-07-15T19:02:39.995Z,73.65
2023-07-15T19:05:52.445Z,74.52
2023-07-15T19:09:05.054Z,75.50
2023-07-15T19:12:17.947Z,76.32
2023-07-15T19:15:30.558Z,76.05
2023-07-15T19:18:42.639Z,76.92
2023-07-15T19:21:55.078Z,77.25
2023-07-15T19:25:08.557Z,77.24
2023-07-15T19:28:20.814Z,77.86
2023-07-15T19:31:32.988Z,78.26
2023-07-15T19:34:46.460Z,78.67
2023-07-15T19:37:58.514Z,79.29
2023-07-15T19:41:12.798Z,80.18
2023-07-15T19:44:25.124Z,81.07
2023-07-15T19:47:37.405Z,81.05
2023-07-15T19:50:49.635Z,81.77
2023-07-15T19:54:01.905Z,81.71
2023-07-15T19:57:14.630Z,81.87
2023-07-15T20:00:27.041Z,80.35
2023-07-15T20:03:39.339Z,82.03
2023-07-15T20:06:53.649Z,82.98
2023-07-15T20:10:05.763Z,83.48
2023-07-15T20:13:18.113Z,84.35
2023-07-15T20:16:30.654Z,84.46
2023-07-15T20:19:42.932Z,85.58
2023-07-15T20:22:55.170Z,86.39
2023-07-15T20:26:07.558Z,86.71
2023-07-15T20:29:19.919Z,89.10
2023-07-15T20:32:32.190Z,89.79
2023-07-15T20:35:46.257Z,88.78
2023-07-15T20:38:58.329Z,86.32
2023-07-15T20:42:13.771Z,89.04
2023-07-15T20:45:26.274Z,87.16
2023-07-15T20:48:38.684Z,90.46
2023-07-15T20:51:50.858Z,90.88
2023-07-15T20:55:03.091Z,90.34
2023-07-15T20:58:15.569Z,91.80
2023-07-15T21:01:27.870Z,91.73
2023-07-15T21:04:40.495Z,90.80
2023-07-15T21:07:52.877Z,91.38
2023-07-15T21:11:06.916Z,91.50
2023-07-15T21:14:19.511Z,91.94
2023-07-15T21:17:32.104Z,92.89
2023-07-15T21:20:44.437Z,92.74
2023-07-15T21:23:58.246Z,92.38
2023-07-15T21:27:11.703Z,92.47
2023-07-15T21:30:24.096Z,91.77
2023-07-15T21:33:36.572Z,93.24
2023-07-15T21:36:48.715Z,90.00
2023-07-15T21:40:00.903Z,90.68
2023-07-15T21:43:13.113Z,91.99
2023-07-15T21:46:26.921Z,92.29
2023-07-15T21:49:39.060Z,90.89
2023-07-15T21:52:51.507Z,93.48
2023-07-15T21:56:04.204Z,94.60
2023-07-15T21:59:16.348Z,94.79
2023-07-15T22:02:28.528Z,96.06
2023-07-15T22:05:40.945Z,95.48
2023-07-15T22:08:53.170Z,95.85
2023-07-15T22:12:05.465Z,96.21
2023-07-15T22:15:18.972Z,95.76
2023-07-15T22:21:45.296Z,94.70
2023-07-15T22:24:57.943Z,95.31
2023-07-15T22:28:10.934Z,95.74
2023-07-15T22:31:23.114Z,95.91
2023-07-15T22:34:36.938Z,94.45
2023-07-15T22:37:49.068Z,94.40
2023-07-15T22:41:02.404Z,96.25
2023-07-15T22:44:14.473Z,98.27
2023-07-15T22:47:26.568Z,98.55
2023-07-15T22:50:38.603Z,99.75
2023-07-15T22:53:50.887Z,99.32
2023-07-15T22:57:03.369Z,99.50
2023-07-15T23:00:18.975Z,99.23
2023-07-15T23:03:31.326Z,99.70
2023-07-15T23:06:43.532Z,100.00
2023-07-15T23:09:55.758Z,100.00
2023-07-15T23:13:07.961Z,100.00
2023-07-15T23:16:20.223Z,100.00
2023-07-15T23:19:32.751Z,100.00
2023-07-15T23:22:45.029Z,100.00
2023-07-15T23:25:57.490Z,100.00
2023-07-15T23:29:09.783Z,100.00
2023-07-15T23:32:24.326Z,100.00
2023-07-15T23:35:37.532Z,100.00
2023-07-15T23:38:50.187Z,100.00
2023-07-15T23:42:02.270Z,100.00
2023-07-15T23:45:16.868Z,100.00
2023-07-15T23:48:29.084Z,100.00
2023-07-15T23:51:41.376Z,100.00
2023-07-15T23:54:53.589Z,100.00
2023-07-15T23:58:06.134Z,100.00
